createdAt,value
2019-06-10T00:02:03.770Z,95455.39
2019-06-10T00:04:32.869Z,95455.88
2019-06-10T00:07:03.890Z,95464.09
2019-06-10T00:09:33.070Z,95467.70
2019-06-10T00:12:04.378Z,95468.49
2019-06-10T00:14:33.881Z,95465.52
2019-06-10T00:17:04.653Z,95458.63
2019-06-10T00:19:34.087Z,95467.66
2019-06-10T00:22:04.080Z,95459.28
2019-06-10T00:24:34.665Z,95452.42
2019-06-10T00:27:05.625Z,95452.57
2019-06-10T00:29:34.939Z,95442.30
2019-06-10T00:32:06.530Z,95429.81
2019-06-10T00:34:35.487Z,95432.30
2019-06-10T00:37:07.287Z,95428.37
2019-06-10T00:39:36.380Z,95426.91
2019-06-10T00:42:07.918Z,95422.84
2019-06-10T00:44:37.352Z,95415.61
2019-06-10T00:47:08.258Z,95415.13
2019-06-10T00:49:37.591Z,95416.11
2019-06-10T00:52:07.461Z,95418.09
2019-06-10T00:54:38.152Z,95415.64
2019-06-10T00:57:07.420Z,95412.34
2019-06-10T00:59:36.614Z,95412.83
2019-06-10T01:02:06.461Z,95405.75
2019-06-10T01:04:36.811Z,95399.70
2019-06-10T01:07:06.598Z,95412.06
2019-06-10T01:09:35.884Z,95415.00
2019-06-10T01:12:05.263Z,95422.08
2019-06-10T01:14:34.788Z,95416.66
2019-06-10T01:17:05.445Z,95411.73
2019-06-10T01:19:35.003Z,95391.34
2019-06-10T01:22:04.273Z,95397.73
2019-06-10T01:24:33.487Z,95402.67
2019-06-10T01:27:02.768Z,95411.73
2019-06-10T01:32:23.165Z,95414.39
2019-06-10T01:34:52.363Z,95414.70
2019-06-10T01:37:22.034Z,95411.23
2019-06-10T01:39:52.573Z,95418.31
2019-06-10T01:42:21.786Z,95417.45
2019-06-10T01:44:51.384Z,95415.98
2019-06-10T01:47:21.572Z,95425.20
2019-06-10T01:49:51.817Z,95418.13
2019-06-10T01:52:22.535Z,95405.14
2019-06-10T01:54:51.800Z,95388.19
2019-06-10T01:57:22.016Z,95367.27
2019-06-10T01:59:51.984Z,95370.02
2019-06-10T02:23:17.067Z,95332.48
2019-06-10T02:28:36.063Z,95343.37
2019-06-10T02:31:05.279Z,95358.34
2019-06-10T02:33:36.359Z,95392.05
2019-06-10T02:36:05.456Z,95443.23
2019-06-10T02:38:39.341Z,95504.03
2019-06-10T02:41:45.488Z,95546.04
2019-06-10T02:44:18.479Z,95546.38
2019-06-10T02:46:46.072Z,95567.27
2019-06-10T02:49:33.078Z,95572.77
2019-06-10T02:54:43.868Z,95492.17
2019-06-10T03:00:16.989Z,95481.66
2019-06-10T03:02:38.504Z,95481.66
2019-06-10T03:05:47.164Z,95467.55
2019-06-10T03:08:36.641Z,95462.96
2019-06-10T03:11:06.738Z,95462.96
2019-06-10T03:13:35.947Z,95471.34
2019-06-10T03:16:25.733Z,95478.72
2019-06-10T03:18:55.222Z,95489.88
2019-06-10T03:21:43.947Z,95558.87
2019-06-10T03:24:13.327Z,95558.87
2019-06-10T03:26:43.021Z,95508.73
2019-06-10T03:29:13.058Z,95488.86
2019-06-10T03:31:48.199Z,95415.99
2019-06-10T03:34:15.595Z,95340.47
2019-06-10T03:36:45.890Z,95319.61
2019-06-10T03:39:34.542Z,95284.81
2019-06-10T03:42:04.257Z,95284.81
2019-06-10T03:44:33.472Z,95273.66
2019-06-10T03:47:02.943Z,95276.64
2019-06-10T03:52:24.063Z,95286.63
2019-06-10T03:54:52.829Z,95330.78
2019-06-10T03:57:24.206Z,95324.25
2019-06-10T03:59:53.045Z,95278.83
2019-06-10T04:02:25.122Z,95272.73
2019-06-10T04:04:53.943Z,95319.02
2019-06-10T04:07:42.845Z,95324.27
2019-06-10T04:10:32.558Z,95317.55
2019-06-10T04:13:02.643Z,95317.55
2019-06-10T04:15:32.819Z,95332.45
2019-06-10T04:18:24.658Z,95345.08
2019-06-10T04:20:52.960Z,95345.08
2019-06-10T04:23:24.222Z,95337.83
2019-06-10T04:25:53.288Z,95333.88
2019-06-10T04:30:56.830Z,95336.67
2019-06-10T04:33:27.311Z,95333.42
2019-06-10T04:35:57.011Z,95344.94
2019-06-10T04:38:27.513Z,95331.48
2019-06-10T04:40:57.587Z,95344.30
2019-06-10T04:43:27.746Z,95362.98
2019-06-10T04:46:16.851Z,95336.73
2019-06-10T04:49:05.202Z,95349.69
2019-06-10T04:51:34.398Z,95349.69
2019-06-10T04:54:03.714Z,95349.69
2019-06-10T04:56:33.539Z,95318.03
2019-06-10T04:59:04.165Z,95304.77
2019-06-10T05:01:34.087Z,95308.20
2019-06-10T05:04:03.418Z,95300.64
2019-06-10T05:06:33.070Z,95293.25
2019-06-10T05:09:23.942Z,95321.30
2019-06-10T05:12:12.097Z,95327.85
2019-06-10T05:14:43.250Z,95327.85
2019-06-10T05:17:13.324Z,95326.69
2019-06-10T05:19:42.936Z,95325.05
2019-06-10T05:22:33.039Z,95327.70
2019-06-10T05:25:02.688Z,95335.41
2019-06-10T05:27:33.946Z,95330.95
2019-06-10T05:30:03.142Z,95328.30
2019-06-10T05:32:33.529Z,95325.84
2019-06-10T05:37:59.215Z,95311.24
2019-06-10T05:40:29.380Z,95313.03
2019-06-10T05:43:02.476Z,95326.64
2019-06-10T05:45:34.417Z,95316.14
2019-06-10T05:48:02.982Z,95315.95
2019-06-10T05:50:34.981Z,95322.22
2019-06-10T05:53:04.882Z,95362.16
2019-06-10T05:55:35.298Z,95424.20
2019-06-10T05:58:05.120Z,95430.44
2019-06-10T06:00:35.527Z,95433.53
2019-06-10T06:03:05.696Z,95422.69
2019-06-10T06:05:37.575Z,95410.39
2019-06-10T06:08:08.781Z,95400.89
2019-06-10T06:10:37.866Z,95398.09
2019-06-10T06:13:08.087Z,95370.22
2019-06-10T06:15:38.057Z,95361.67
2019-06-10T06:18:10.784Z,95384.80
2019-06-10T06:20:39.607Z,95403.51
2019-06-10T06:23:09.265Z,95386.11
2019-06-10T06:25:44.360Z,95386.11
2019-06-10T06:28:12.868Z,95399.91
2019-06-10T06:30:42.264Z,95396.63
2019-06-10T06:33:13.824Z,95382.83
2019-06-10T06:35:46.627Z,95394.16
2019-06-10T06:38:26.875Z,95405.16
2019-06-10T06:40:56.282Z,95402.69
2019-06-10T06:43:28.918Z,95426.16
2019-06-10T06:45:56.942Z,95436.84
2019-06-10T06:48:27.835Z,95428.62
2019-06-10T06:51:04.359Z,95418.94
2019-06-10T06:53:37.291Z,95414.34
2019-06-10T06:55:59.920Z,95383.35
2019-06-10T06:58:29.191Z,95402.70
2019-06-10T07:01:39.581Z,95437.97
2019-06-10T07:04:09.519Z,95434.06
2019-06-10T07:06:59.437Z,95429.77
2019-06-10T07:10:08.088Z,95432.23
2019-06-10T07:13:17.003Z,95413.22
2019-06-10T07:16:05.640Z,95388.22
2019-06-10T07:18:41.206Z,95388.22
2019-06-10T07:21:24.860Z,95389.97
2019-06-10T07:23:54.542Z,95395.81
2019-06-10T07:26:23.753Z,95393.90
2019-06-10T07:28:53.890Z,95389.23
2019-06-10T07:31:27.856Z,95394.16
2019-06-10T07:33:54.895Z,95390.13
2019-06-10T07:36:24.204Z,95376.53
2019-06-10T07:38:54.201Z,95367.95
2019-06-10T07:41:24.777Z,95349.59
2019-06-10T07:43:54.076Z,95344.16
2019-06-10T07:47:02.759Z,95342.20
2019-06-10T07:49:33.784Z,95329.54
2019-06-10T07:52:12.974Z,95333.13
2019-06-10T07:54:35.928Z,95334.17
2019-06-10T07:57:05.549Z,95337.51
2019-06-10T07:59:35.445Z,95335.56
2019-06-10T08:02:05.066Z,95320.56
2019-06-10T08:04:35.218Z,95319.48
2019-06-10T08:07:05.296Z,95310.97
2019-06-10T08:09:35.810Z,95298.09
2019-06-10T08:12:06.132Z,95288.59
2019-06-10T08:14:37.417Z,95292.07
2019-06-10T08:17:08.020Z,95289.56
2019-06-10T08:19:40.353Z,95284.73
2019-06-10T08:22:08.232Z,95286.61
2019-06-10T08:24:39.384Z,95287.72
2019-06-10T08:27:11.949Z,95296.40
2019-06-10T08:29:44.405Z,95289.29
2019-06-10T08:32:13.062Z,95288.70
2019-06-10T08:34:45.015Z,95286.70
2019-06-10T08:37:13.985Z,95287.73
2019-06-10T08:39:45.711Z,95289.35
2019-06-10T08:42:14.223Z,95297.30
2019-06-10T08:44:45.614Z,95297.20
2019-06-10T08:47:15.926Z,95290.43
2019-06-10T08:49:46.295Z,95299.81
2019-06-10T08:52:16.511Z,95297.73
2019-06-10T08:57:23.244Z,95279.58
2019-06-10T08:59:53.328Z,95272.96
2019-06-10T09:02:23.172Z,95263.47
2019-06-10T09:04:53.929Z,95258.34
2019-06-10T09:07:23.865Z,95258.39
2019-06-10T09:09:54.272Z,95266.36
2019-06-10T09:12:32.927Z,95271.31
2019-06-10T09:14:54.749Z,95280.58
2019-06-10T09:17:24.292Z,95285.98
2019-06-10T09:19:54.182Z,95286.94
2019-06-10T09:22:24.459Z,95289.06
2019-06-10T09:24:56.337Z,95296.42
2019-06-10T09:27:26.992Z,95302.52
2019-06-10T09:29:55.760Z,95297.38
2019-06-10T09:32:24.931Z,95294.56
2019-06-10T09:34:57.318Z,95292.70
2019-06-10T09:37:25.183Z,95290.81
2019-06-10T09:39:59.486Z,95290.48
2019-06-10T09:42:25.366Z,95283.25
2019-06-10T09:44:55.644Z,95276.97
2019-06-10T09:47:26.021Z,95271.15
2019-06-10T09:49:55.744Z,95288.11
2019-06-10T09:52:37.257Z,95293.26
2019-06-10T09:55:49.729Z,95297.30
2019-06-10T09:58:17.402Z,95292.83
2019-06-10T10:01:26.614Z,95301.27
2019-06-10T10:04:00.115Z,95302.64
2019-06-10T10:06:26.847Z,95302.86
2019-06-10T10:09:37.041Z,95299.59
2019-06-10T10:12:07.269Z,95294.16
2019-06-10T10:14:36.800Z,95296.95
2019-06-10T10:20:03.255Z,95285.45
2019-06-10T10:22:34.062Z,95280.36
2019-06-10T10:25:03.695Z,95274.00
2019-06-10T10:27:57.250Z,95264.52
2019-06-10T10:31:05.277Z,95255.82
2019-06-10T10:33:34.529Z,95240.45
2019-06-10T10:36:03.772Z,95243.67
2019-06-10T10:38:34.459Z,95242.09
2019-06-10T10:44:13.779Z,95227.41
2019-06-10T10:46:44.393Z,95208.45
2019-06-10T10:49:14.812Z,95211.05
2019-06-10T10:51:44.916Z,95207.58
2019-06-10T10:54:28.487Z,95202.53
2019-06-10T10:56:49.256Z,95197.95
2019-06-10T10:59:18.275Z,95192.79
2019-06-10T11:01:47.605Z,95178.02
2019-06-10T11:04:17.057Z,95186.00
2019-06-10T11:10:03.621Z,95183.01
2019-06-10T11:15:40.455Z,95158.86
2019-06-10T11:18:30.415Z,95151.75
2019-06-10T11:21:02.488Z,95155.34
2019-06-10T11:23:34.262Z,95150.16
2019-06-10T11:26:01.632Z,95147.15
2019-06-10T11:28:32.145Z,95153.36
2019-06-10T11:31:03.823Z,95153.34
2019-06-10T11:33:33.679Z,95153.44
2019-06-10T11:36:03.799Z,95145.23
2019-06-10T11:38:33.237Z,95135.02
2019-06-10T11:41:02.479Z,95129.43
2019-06-10T11:43:33.132Z,95129.06
2019-06-10T11:46:07.523Z,95135.64
2019-06-10T11:48:34.419Z,95127.84
2019-06-10T11:51:04.867Z,95114.19
2019-06-10T11:53:35.288Z,95103.30
2019-06-10T11:56:05.333Z,95095.91
2019-06-10T11:58:34.583Z,95093.06
2019-06-10T12:01:04.359Z,95096.90
2019-06-10T12:03:35.590Z,95094.82
2019-06-10T12:06:05.703Z,95092.59
2019-06-10T12:08:36.442Z,95090.59
2019-06-10T12:11:06.143Z,95086.91
2019-06-10T12:13:35.766Z,95085.24
2019-06-10T12:18:36.399Z,95066.20
2019-06-10T12:21:05.604Z,95053.19
2019-06-10T12:23:35.221Z,95048.59
2019-06-10T12:26:05.138Z,95034.06
2019-06-10T12:28:35.595Z,95022.95
2019-06-10T12:31:07.141Z,95023.47
2019-06-10T12:33:35.849Z,95019.67
2019-06-10T12:36:07.236Z,95014.19
2019-06-10T12:38:36.212Z,95012.64
2019-06-10T12:41:08.922Z,95002.91
2019-06-10T12:43:36.779Z,94993.98
2019-06-10T12:46:05.978Z,94983.19
2019-06-10T12:48:35.245Z,94984.02
2019-06-10T12:51:08.822Z,94980.34
2019-06-10T12:53:35.879Z,94978.11
2019-06-10T12:56:44.464Z,94982.22
2019-06-10T12:59:13.878Z,94970.69
2019-06-10T13:01:44.664Z,94963.75
2019-06-10T13:04:14.167Z,94970.33
2019-06-10T13:07:23.063Z,94961.17
2019-06-10T13:10:33.306Z,94958.75
2019-06-10T13:13:06.711Z,94957.48
2019-06-10T13:15:34.015Z,94949.03
2019-06-10T13:18:06.178Z,94954.87
2019-06-10T13:20:34.257Z,94938.50
2019-06-10T13:23:17.315Z,94940.87
2019-06-10T13:25:34.504Z,94939.70
2019-06-10T13:28:06.699Z,94936.06
2019-06-10T13:30:35.242Z,94927.13
2019-06-10T13:33:10.453Z,94911.25
2019-06-10T13:35:35.875Z,94902.27
2019-06-10T13:38:06.857Z,94905.70
2019-06-10T13:40:36.129Z,94902.80
2019-06-10T13:43:06.061Z,94907.53
2019-06-10T13:45:36.360Z,94904.23
2019-06-10T13:48:08.389Z,94895.11
2019-06-10T13:50:36.912Z,94896.16
2019-06-10T13:53:07.004Z,94886.56
2019-06-10T13:55:37.083Z,94885.91
2019-06-10T13:58:09.555Z,94876.16
2019-06-10T14:03:26.139Z,94874.98
2019-06-10T14:05:59.515Z,94865.86
2019-06-10T14:08:26.392Z,94854.70
2019-06-10T14:10:55.603Z,94855.27
2019-06-10T14:13:26.243Z,94845.15
2019-06-10T14:15:56.205Z,94842.63
2019-06-10T14:18:25.493Z,94844.52
2019-06-10T14:20:55.352Z,94835.20
2019-06-10T14:23:24.619Z,94816.27
2019-06-10T14:25:53.809Z,94815.58
2019-06-10T14:28:38.771Z,94818.45
2019-06-10T14:30:54.085Z,94798.21
2019-06-10T14:33:23.573Z,94804.13
2019-06-10T14:35:53.432Z,94806.12
2019-06-10T14:38:23.766Z,94798.33
2019-06-10T14:40:53.043Z,94805.95
2019-06-10T14:43:23.114Z,94804.45
2019-06-10T14:45:53.655Z,94787.32
2019-06-10T14:48:24.248Z,94772.87
2019-06-10T14:50:53.749Z,94763.20
2019-06-10T14:53:23.350Z,94757.83
2019-06-10T14:55:53.937Z,94755.11
2019-06-10T14:58:23.433Z,94755.36
2019-06-10T15:00:54.781Z,94753.91
2019-06-10T15:03:25.673Z,94761.20
2019-06-10T15:05:55.645Z,94766.48
2019-06-10T15:08:25.256Z,94774.22
2019-06-10T15:10:54.477Z,94783.00
2019-06-10T15:13:23.865Z,94785.99
2019-06-10T15:15:53.528Z,94786.89
2019-06-10T15:18:23.881Z,94791.22
2019-06-10T15:20:54.393Z,94808.36
2019-06-10T15:23:23.926Z,94800.02
2019-06-10T15:25:56.903Z,94798.15
2019-06-10T15:28:24.569Z,94791.78
2019-06-10T15:30:53.822Z,94790.25
2019-06-10T15:33:23.901Z,94784.69
2019-06-10T15:35:54.083Z,94765.03
2019-06-10T15:38:23.577Z,94739.75
2019-06-10T15:40:54.269Z,94714.99
2019-06-10T15:43:23.812Z,94752.61
2019-06-10T15:45:54.508Z,94869.16
2019-06-10T15:48:25.524Z,95006.55
2019-06-10T15:50:55.037Z,95037.33
2019-06-10T15:53:25.735Z,95051.94
2019-06-10T15:56:13.081Z,95030.03
2019-06-10T15:58:26.280Z,95035.66
2019-06-10T16:00:55.485Z,94994.25
2019-06-10T16:03:25.634Z,95043.03
2019-06-10T16:05:55.695Z,95042.85
2019-06-10T16:08:25.271Z,95050.58
2019-06-10T16:10:54.761Z,95027.47
2019-06-10T16:13:25.922Z,94987.57
2019-06-10T16:15:55.398Z,94985.55
2019-06-10T16:18:27.934Z,95009.56
2019-06-10T16:20:55.601Z,95047.03
2019-06-10T16:23:26.639Z,95085.97
2019-06-10T16:25:55.837Z,95096.69
2019-06-10T16:28:26.456Z,95048.59
2019-06-10T16:30:56.074Z,95001.67
2019-06-10T16:33:27.676Z,95067.77
2019-06-10T16:35:56.668Z,95081.02
2019-06-10T16:38:27.268Z,95056.55
2019-06-10T16:40:57.340Z,95042.30
2019-06-10T16:43:27.732Z,95022.05
2019-06-10T16:45:58.028Z,95020.44
2019-06-10T16:48:27.185Z,95002.48
2019-06-10T16:50:56.457Z,94989.94
2019-06-10T16:53:29.872Z,95025.45
2019-06-10T16:55:56.999Z,95018.00
2019-06-10T16:58:27.975Z,95019.94
2019-06-10T17:00:57.182Z,95027.78
2019-06-10T17:03:27.250Z,95039.12
2019-06-10T17:05:57.351Z,95044.05
2019-06-10T17:11:03.309Z,95057.55
2019-06-10T17:13:32.905Z,95056.88
2019-06-10T17:16:03.402Z,95045.39
2019-06-10T17:18:33.803Z,95035.42
2019-06-10T17:21:04.367Z,95026.30
2019-06-10T17:23:36.550Z,95034.49
2019-06-10T17:26:06.352Z,95030.15
2019-06-10T17:28:36.863Z,95012.33
2019-06-10T17:31:06.579Z,95006.77
2019-06-10T17:33:36.254Z,95009.76
2019-06-10T17:36:05.867Z,95023.81
2019-06-10T17:38:35.480Z,95002.80
2019-06-10T17:41:05.083Z,94995.47
2019-06-10T17:43:34.617Z,94993.53
2019-06-10T17:46:05.336Z,95005.62
2019-06-10T17:48:34.528Z,95007.88
2019-06-10T17:51:04.136Z,94998.98
2019-06-10T17:53:34.954Z,94991.70
2019-06-10T17:56:04.304Z,94997.77
2019-06-10T17:58:50.163Z,94992.56
2019-06-10T18:01:04.587Z,94992.77
2019-06-10T18:03:35.767Z,95000.48
2019-06-10T18:06:05.458Z,95004.00
2019-06-10T18:08:36.373Z,95006.36
2019-06-10T18:11:05.613Z,95013.16
2019-06-10T18:13:36.052Z,95033.48
2019-06-10T18:16:06.202Z,95030.98
2019-06-10T18:18:37.269Z,95027.66
2019-06-10T18:21:06.397Z,95039.87
2019-06-10T18:23:35.652Z,95039.98
2019-06-10T18:26:04.849Z,95029.72
2019-06-10T18:28:52.733Z,95033.36
2019-06-10T18:31:05.049Z,95032.66
2019-06-10T18:33:37.506Z,95038.68
2019-06-10T18:36:05.637Z,95046.96
2019-06-10T18:38:37.137Z,95046.55
2019-06-10T18:41:05.889Z,95039.47
2019-06-10T18:43:35.710Z,95033.58
2019-06-10T18:46:06.164Z,95042.23
2019-06-10T18:48:38.202Z,95033.35
2019-06-10T18:51:09.112Z,95032.38
2019-06-10T18:53:39.229Z,95029.30
2019-06-10T18:56:08.805Z,95019.30
2019-06-10T18:58:39.041Z,95013.71
2019-06-10T19:01:08.995Z,95016.35
2019-06-10T19:03:39.658Z,95018.68
2019-06-10T19:06:12.349Z,95021.02
2019-06-10T19:08:43.963Z,95022.23
2019-06-10T19:11:12.587Z,95022.63
2019-06-10T19:13:43.609Z,95027.34
2019-06-10T19:16:13.179Z,95037.28
2019-06-10T19:18:43.728Z,95042.05
2019-06-10T19:21:13.289Z,95044.54
2019-06-10T19:23:44.275Z,95040.30
2019-06-10T19:26:13.745Z,95048.20
2019-06-10T19:28:45.379Z,95054.95
2019-06-10T19:31:15.466Z,95058.27
2019-06-10T19:33:45.639Z,95052.14
2019-06-10T19:36:17.020Z,95042.78
2019-06-10T19:38:46.290Z,95044.63
2019-06-10T19:41:15.926Z,95040.06
2019-06-10T19:43:45.591Z,95032.59
2019-06-10T19:46:16.111Z,95031.43
2019-06-10T19:48:57.017Z,95024.33
2019-06-10T19:51:17.167Z,95020.77
2019-06-10T19:53:46.362Z,95018.63
2019-06-10T19:56:15.922Z,95011.27
2019-06-10T19:58:46.526Z,94999.88
2019-06-10T20:03:52.177Z,94999.30
2019-06-10T20:06:22.789Z,94993.11
2019-06-10T20:08:52.322Z,94990.78
2019-06-10T20:11:23.011Z,94978.84
2019-06-10T20:13:53.066Z,94977.73
2019-06-10T20:16:23.513Z,94968.91
2019-06-10T20:18:53.689Z,94967.65
2019-06-10T20:21:23.713Z,94971.18
2019-06-10T20:23:53.132Z,94967.73
2019-06-10T20:26:22.635Z,94962.28
2019-06-10T20:28:55.478Z,94954.10
2019-06-10T20:31:25.079Z,94953.23
2019-06-10T20:33:54.331Z,94937.77
2019-06-10T20:36:27.076Z,94947.83
2019-06-10T20:38:54.924Z,94931.98
2019-06-10T20:41:24.523Z,94929.84
2019-06-10T20:43:55.569Z,94925.27
2019-06-10T20:46:24.748Z,94930.19
2019-06-10T20:48:54.707Z,94924.73
2019-06-10T20:51:27.213Z,94924.48
2019-06-10T20:53:56.546Z,94923.13
2019-06-10T20:56:25.755Z,94920.44
2019-06-10T20:58:55.010Z,94937.19
2019-06-10T21:01:25.566Z,94937.70
2019-06-10T21:03:56.020Z,94924.53
2019-06-10T21:07:04.665Z,94910.34
2019-06-10T21:10:16.833Z,94910.34
2019-06-10T21:12:46.763Z,94901.91
2019-06-10T21:15:35.059Z,94903.38
2019-06-10T21:18:04.431Z,94903.38
2019-06-10T21:20:56.110Z,94895.50
2019-06-10T21:23:24.561Z,94895.50
2019-06-10T21:25:53.772Z,94899.55
2019-06-10T21:28:23.023Z,94900.91
2019-06-10T21:30:57.722Z,94902.73
2019-06-10T21:33:23.506Z,94892.91
2019-06-10T21:35:55.051Z,94891.72
2019-06-10T21:38:24.381Z,94894.49
2019-06-10T21:40:54.220Z,94879.27
2019-06-10T21:43:24.973Z,94885.78
2019-06-10T21:45:57.650Z,94885.78
2019-06-10T21:48:25.512Z,94885.30
2019-06-10T21:50:56.051Z,94876.94
2019-06-10T21:53:26.033Z,94884.73
2019-06-10T21:55:55.531Z,94883.61
2019-06-10T21:58:25.141Z,94889.19
2019-06-10T22:01:08.356Z,94889.58
2019-06-10T22:03:25.478Z,94893.41
2019-06-10T22:05:54.675Z,94889.28
2019-06-10T22:08:24.191Z,94892.09
2019-06-10T22:10:56.178Z,94893.02
2019-06-10T22:13:24.361Z,94900.75
2019-06-10T22:15:56.886Z,94914.03
2019-06-10T22:18:24.864Z,94918.19
2019-06-10T22:20:57.226Z,94924.42
2019-06-10T22:23:25.055Z,94930.34
2019-06-10T22:25:57.561Z,94934.39
2019-06-10T22:28:26.075Z,94943.09
2019-06-10T22:31:14.647Z,94943.39
2019-06-10T22:33:26.238Z,94939.83
2019-06-10T22:36:14.586Z,94953.02
2019-06-10T22:38:43.837Z,94953.02
2019-06-10T22:41:13.089Z,94956.81
2019-06-10T22:43:42.682Z,94950.15
2019-06-10T22:46:13.262Z,94950.60
2019-06-10T22:48:42.617Z,94940.92
2019-06-10T22:51:12.359Z,94933.61
2019-06-10T22:53:42.837Z,94942.61
2019-06-10T22:56:12.498Z,94944.22
2019-06-10T22:58:42.337Z,94945.80
2019-06-10T23:01:12.453Z,94938.14
2019-06-10T23:04:03.771Z,94938.82
2019-06-10T23:06:34.002Z,94938.82
2019-06-10T23:11:56.087Z,94931.50
2019-06-10T23:14:25.140Z,94919.58
2019-06-10T23:16:56.708Z,94918.83
2019-06-10T23:19:27.267Z,94917.06
2019-06-10T23:22:15.390Z,94926.41
2019-06-10T23:24:44.608Z,94926.41
2019-06-10T23:27:13.873Z,94933.16
2019-06-10T23:30:10.811Z,94945.88
2019-06-10T23:32:33.163Z,94945.88
2019-06-10T23:35:23.114Z,94953.05
2019-06-10T23:38:13.139Z,94950.16
2019-06-10T23:40:43.142Z,94950.16
2019-06-10T23:43:13.808Z,94947.31
2019-06-10T23:45:43.040Z,94942.40
2019-06-10T23:48:13.330Z,94941.03
2019-06-10T23:50:43.887Z,94936.21
2019-06-10T23:53:14.511Z,94938.66
2019-06-10T23:55:43.767Z,94935.20
2019-06-10T23:58:13.187Z,94934.23
